Time;durP1;ratioP1;P1;durP2;ratioP2;P2;SDS_P1;SDS_P2;PMS_P1;PMS_P2;Temp;Humidity;BMP_temperature;BMP_pressure;BME280_temperature;BME280_humidity;BME280_pressure;Samples;Min_cycle;Max_cycle;Signal;HPM_P1;HPM_P2
2021/05/19 00:02:23;;;;;;;12.77;11.57;;;9.90;99.90;;;;;;5030691;28;20614;-66
2021/05/19 00:04:51;;;;;;;11.70;10.60;;;9.80;99.90;;;;;;5009809;28;20260;-63
2021/05/19 00:07:16;;;;;;;12.57;10.60;;;9.80;99.90;;;;;;5031481;28;20262;-64
2021/05/19 00:09:42;;;;;;;11.50;10.40;;;9.80;99.90;;;;;;5024966;28;21092;-65
2021/05/19 00:12:08;;;;;;;10.80;9.80;;;9.70;99.90;;;;;;5026868;28;20192;-64
2021/05/19 00:14:33;;;;;;;11.70;10.50;;;9.70;99.90;;;;;;5006167;28;20231;-66
2021/05/19 00:16:59;;;;;;;11.60;10.37;;;9.70;99.90;;;;;;5031747;28;20189;-65
2021/05/19 00:19:25;;;;;;;12.93;11.63;;;9.60;99.90;;;;;;5012942;28;20638;-63
2021/05/19 00:21:51;;;;;;;12.10;10.87;;;9.60;99.90;;;;;;5035042;28;20212;-64
2021/05/19 00:24:17;;;;;;;11.40;10.30;;;9.60;99.90;;;;;;5007263;28;20220;-65
2021/05/19 00:26:42;;;;;;;11.97;10.87;;;9.50;99.90;;;;;;5011337;28;20613;-64
2021/05/19 00:29:12;;;;;;;11.60;10.43;;;9.50;99.90;;;;;;5024386;28;20204;-65
2021/05/19 00:31:41;;;;;;;13.23;11.83;;;9.40;99.90;;;;;;5013595;28;20628;-65
2021/05/19 00:34:08;;;;;;;10.90;9.80;;;9.40;99.90;;;;;;5031587;28;20723;-64
2021/05/19 00:36:34;;;;;;;12.93;11.73;;;9.40;99.90;;;;;;5004598;28;20696;-65
2021/05/19 00:39:00;;;;;;;11.27;10.17;;;9.40;99.90;;;;;;5011759;28;20641;-65
2021/05/19 00:41:26;;;;;;;11.40;10.20;;;9.30;99.90;;;;;;5018785;28;21757;-65
2021/05/19 00:44:00;;;;;;;11.73;10.40;;;9.30;99.90;;;;;;5032633;28;20224;-65
2021/05/19 00:46:26;;;;;;;12.10;10.90;;;9.30;99.90;;;;;;5030737;28;20694;-65
2021/05/19 00:48:52;;;;;;;13.20;12.00;;;9.30;99.90;;;;;;5035234;28;21029;-63
2021/05/19 00:51:17;;;;;;;14.03;12.53;;;9.20;99.90;;;;;;5034799;28;20848;-63
2021/05/19 00:53:43;;;;;;;13.73;12.33;;;9.20;99.90;;;;;;5027756;28;20730;-64
2021/05/19 00:56:08;;;;;;;12.70;11.17;;;9.20;99.90;;;;;;5042627;28;20191;-66
2021/05/19 00:58:34;;;;;;;13.10;11.80;;;9.20;99.90;;;;;;5038952;28;20226;-65
2021/05/19 01:01:00;;;;;;;13.27;11.87;;;9.20;99.90;;;;;;5010620;28;20245;-65
2021/05/19 01:03:26;;;;;;;14.73;12.33;;;9.20;99.90;;;;;;5030160;28;20709;-62
2021/05/19 01:05:57;;;;;;;13.07;11.77;;;9.20;99.90;;;;;;5017643;28;22994;-62
2021/05/19 01:11:09;;;;;;;16.63;12.73;;;9.10;99.90;;;;;;5040787;28;20660;-65
2021/05/19 01:13:38;;;;;;;15.83;13.90;;;9.10;99.90;;;;;;5006038;28;20700;-64
2021/05/19 01:16:04;;;;;;;15.73;12.93;;;9.10;99.90;;;;;;5013993;28;21282;-64
2021/05/19 01:18:30;;;;;;;17.20;13.50;;;9.10;99.90;;;;;;5036403;28;20761;-65
2021/05/19 01:20:57;;;;;;;16.67;13.30;;;9.10;99.90;;;;;;5017707;28;20733;-63
2021/05/19 01:23:27;;;;;;;16.77;14.40;;;9.10;99.90;;;;;;5034192;28;20232;-65
2021/05/19 01:25:53;;;;;;;17.43;14.20;;;8.90;99.90;;;;;;5035534;28;20607;-64
2021/05/19 01:28:19;;;;;;;19.57;14.60;;;9.00;99.90;;;;;;5028852;28;20742;-65
2021/05/19 01:30:44;;;;;;;16.93;13.00;;;9.00;99.90;;;;;;5033599;28;20622;-65
2021/05/19 01:33:10;;;;;;;14.70;13.10;;;9.00;99.90;;;;;;5017563;28;20231;-63
2021/05/19 01:35:38;;;;;;;17.87;14.07;;;9.00;99.90;;;;;;5029662;28;20196;-64
2021/05/19 01:38:06;;;;;;;15.70;13.70;;;8.90;99.90;;;;;;5014766;28;20231;-65
2021/05/19 01:40:35;;;;;;;18.37;15.13;;;8.90;99.90;;;;;;5035975;28;20690;-65
2021/05/19 01:43:03;;;;;;;18.07;15.47;;;8.90;99.90;;;;;;5035972;28;20638;-65
2021/05/19 01:45:29;;;;;;;15.87;14.23;;;8.90;99.90;;;;;;5032317;28;20614;-63
2021/05/19 01:47:55;;;;;;;19.50;16.40;;;8.80;99.90;;;;;;5028497;28;20691;-63
2021/05/19 01:50:30;;;;;;;19.40;16.20;;;8.80;99.90;;;;;;5008511;28;20223;-62
2021/05/19 01:52:58;;;;;;;19.30;16.20;;;8.80;99.90;;;;;;5030464;28;20657;-65
2021/05/19 01:55:25;;;;;;;18.80;15.93;;;8.80;99.90;;;;;;5006862;28;21174;-65
2021/05/19 01:57:51;;;;;;;20.33;16.40;;;8.80;99.90;;;;;;5011792;28;20732;-66
2021/05/19 02:00:20;;;;;;;19.00;16.00;;;8.80;99.90;;;;;;5006192;28;20669;-65
2021/05/19 02:02:54;;;;;;;18.83;16.77;;;8.80;99.90;;;;;;5010005;28;20633;-65
2021/05/19 02:05:23;;;;;;;22.93;18.23;;;8.80;99.90;;;;;;5015174;28;20725;-65
2021/05/19 02:07:49;;;;;;;19.50;16.90;;;8.80;99.90;;;;;;5012785;28;20651;-63
2021/05/19 02:10:16;;;;;;;21.67;17.40;;;8.70;99.90;;;;;;5012851;28;20620;-63
2021/05/19 02:12:41;;;;;;;20.67;16.87;;;8.70;99.90;;;;;;5025090;28;21133;-63
2021/05/19 02:15:07;;;;;;;21.10;17.30;;;8.70;99.90;;;;;;5037084;28;20738;-65
2021/05/19 02:17:33;;;;;;;19.97;17.17;;;8.70;99.90;;;;;;5032574;28;20718;-65
2021/05/19 02:20:14;;;;;;;20.43;18.03;;;8.70;99.90;;;;;;5041908;28;20610;-65
2021/05/19 02:22:41;;;;;;;23.43;18.80;;;8.70;99.90;;;;;;5046897;28;20196;-63
2021/05/19 02:25:08;;;;;;;23.57;19.00;;;8.70;99.90;;;;;;5048692;28;20718;-63
2021/05/19 02:27:34;;;;;;;25.60;19.90;;;8.70;99.90;;;;;;5047905;28;20629;-63
2021/05/19 02:29:59;;;;;;;22.90;20.20;;;8.70;99.90;;;;;;5032527;28;20665;-65
2021/05/19 02:32:27;;;;;;;25.40;20.23;;;8.70;99.90;;;;;;5048243;28;20212;-65
2021/05/19 02:34:53;;;;;;;22.30;19.70;;;8.70;99.90;;;;;;5010077;28;20284;-65
2021/05/19 02:37:18;;;;;;;22.90;19.77;;;8.70;99.90;;;;;;5010117;28;20619;-65
2021/05/19 02:39:46;;;;;;;23.00;19.70;;;8.70;99.90;;;;;;5016604;28;20777;-64
2021/05/19 02:42:12;;;;;;;24.70;20.50;;;8.80;99.90;;;;;;5022132;28;20522;-63
2021/05/19 02:44:38;;;;;;;23.60;20.07;;;8.80;99.90;;;;;;5034619;28;20629;-65
2021/05/19 02:47:04;;;;;;;23.77;20.27;;;8.80;99.90;;;;;;5030764;28;20301;-65
2021/05/19 02:49:30;;;;;;;22.47;19.30;;;8.80;99.90;;;;;;5018913;28;20215;-63
2021/05/19 02:51:55;;;;;;;23.03;20.20;;;8.80;99.90;;;;;;5032114;28;20614;-64
2021/05/19 02:54:21;;;;;;;22.00;19.20;;;8.80;99.90;;;;;;5030185;28;20639;-64
2021/05/19 02:56:47;;;;;;;24.83;20.90;;;8.80;99.90;;;;;;5029630;28;20200;-65
2021/05/19 02:59:13;;;;;;;23.23;20.30;;;8.80;99.90;;;;;;5157506;23;20237;-67
2021/05/19 03:01:41;;;;;;;25.17;19.93;;;8.80;99.90;;;;;;5014171;28;20196;-68
2021/05/19 03:04:07;;;;;;;22.60;20.20;;;8.70;99.90;;;;;;5012159;28;20236;-68
2021/05/19 03:06:33;;;;;;;23.23;20.70;;;8.70;99.90;;;;;;5014803;28;20631;-68
2021/05/19 03:08:59;;;;;;;26.60;20.80;;;8.70;99.90;;;;;;5021760;28;20658;-67
2021/05/19 03:11:25;;;;;;;23.13;19.30;;;8.70;99.90;;;;;;5017062;28;20632;-67
2021/05/19 03:13:51;;;;;;;22.80;19.13;;;8.70;99.90;;;;;;5018202;28;20235;-68
2021/05/19 03:16:16;;;;;;;24.93;20.70;;;8.70;99.90;;;;;;5015320;28;20630;-68
2021/05/19 03:18:42;;;;;;;27.43;21.63;;;8.80;99.90;;;;;;4995455;28;20212;-67
2021/05/19 03:21:08;;;;;;;23.03;20.43;;;8.80;99.90;;;;;;5011230;28;20219;-68
2021/05/19 03:23:34;;;;;;;27.47;21.63;;;8.80;99.90;;;;;;5010297;28;20335;-68
2021/05/19 03:26:00;;;;;;;24.30;20.00;;;8.80;99.90;;;;;;5013104;28;21079;-68
2021/05/19 03:28:26;;;;;;;24.73;20.80;;;8.80;99.90;;;;;;5019009;28;20737;-68
2021/05/19 03:30:52;;;;;;;26.93;22.60;;;8.80;99.90;;;;;;5012944;28;20718;-67
2021/05/19 03:33:18;;;;;;;24.80;20.33;;;8.80;99.90;;;;;;4989007;28;20256;-67
2021/05/19 03:35:44;;;;;;;25.23;21.33;;;8.80;99.90;;;;;;5016519;28;20998;-68
2021/05/19 03:38:11;;;;;;;24.83;20.93;;;8.80;99.90;;;;;;5019635;28;20658;-67
2021/05/19 03:40:36;;;;;;;25.57;21.37;;;8.80;99.90;;;;;;5014071;28;20193;-68
2021/05/19 03:43:02;;;;;;;24.97;20.67;;;8.80;99.90;;;;;;5000160;28;20750;-68
2021/05/19 03:45:28;;;;;;;24.53;19.90;;;8.70;99.90;;;;;;5012472;28;20193;-68
2021/05/19 03:47:54;;;;;;;23.93;19.63;;;8.70;99.90;;;;;;4998480;28;20239;-68
2021/05/19 03:50:25;;;;;;;25.93;21.47;;;8.70;99.90;;;;;;4997325;28;20189;-68
2021/05/19 03:52:51;;;;;;;26.13;21.27;;;8.90;99.90;;;;;;4997034;28;20205;-67
2021/05/19 03:55:16;;;;;;;24.43;19.80;;;8.70;99.90;;;;;;4996118;28;21348;-68
2021/05/19 03:57:42;;;;;;;24.87;21.23;;;8.70;99.90;;;;;;5017814;28;20683;-68
2021/05/19 04:00:12;;;;;;;24.13;21.23;;;8.70;99.90;;;;;;5011440;28;20299;-68
2021/05/19 04:02:38;;;;;;;22.63;20.10;;;8.70;99.90;;;;;;4984197;28;20232;-67
2021/05/19 04:05:05;;;;;;;25.60;19.70;;;8.70;99.90;;;;;;5016962;28;21430;-67
2021/05/19 04:07:30;;;;;;;24.77;20.93;;;8.70;99.90;;;;;;5011448;28;20627;-67
2021/05/19 04:09:56;;;;;;;22.40;18.97;;;8.70;99.90;;;;;;5020043;28;20755;-66
2021/05/19 04:12:21;;;;;;;23.47;19.80;;;8.70;99.90;;;;;;5001307;28;20557;-67
2021/05/19 04:14:47;;;;;;;24.23;19.77;;;8.70;99.90;;;;;;5014389;28;20236;-67
2021/05/19 04:17:13;;;;;;;23.10;19.87;;;8.70;99.90;;;;;;5021410;28;20283;-68
2021/05/19 04:19:41;;;;;;;23.10;19.57;;;8.70;99.90;;;;;;5002099;28;23768;-69
2021/05/19 04:22:07;;;;;;;23.53;20.30;;;8.70;99.90;;;;;;5018694;28;20250;-67
2021/05/19 04:24:33;;;;;;;23.20;20.57;;;8.80;99.90;;;;;;5015934;28;20694;-69
2021/05/19 04:26:58;;;;;;;21.27;18.60;;;8.80;99.90;;;;;;5020156;28;20647;-69
2021/05/19 04:29:24;;;;;;;23.60;21.00;;;8.80;99.90;;;;;;5000767;28;20244;-67
2021/05/19 04:31:49;;;;;;;22.60;19.87;;;8.90;99.90;;;;;;4997502;28;20724;-69
2021/05/19 04:34:15;;;;;;;22.00;19.33;;;8.90;99.90;;;;;;5014111;28;20740;-66
2021/05/19 04:36:41;;;;;;;23.57;19.27;;;8.90;99.90;;;;;;5020715;28;20610;-68
2021/05/19 04:39:06;;;;;;;24.47;20.00;;;8.90;99.90;;;;;;5005840;28;20215;-66
2021/05/19 04:41:32;;;;;;;22.17;19.77;;;8.90;99.90;;;;;;5011611;28;20227;-67
2021/05/19 04:43:58;;;;;;;22.10;18.90;;;8.90;99.90;;;;;;5003686;28;20677;-67
2021/05/19 04:46:24;;;;;;;23.77;20.03;;;9.00;99.90;;;;;;4997072;28;20193;-67
2021/05/19 04:48:50;;;;;;;21.53;19.00;;;9.00;99.90;;;;;;5012643;28;20212;-67
2021/05/19 04:51:18;;;;;;;27.43;20.57;;;9.10;99.90;;;;;;4995376;28;20639;-68
2021/05/19 04:53:43;;;;;;;26.37;21.00;;;9.10;99.90;;;;;;5013216;28;20266;-68
2021/05/19 04:56:09;;;;;;;23.53;19.67;;;9.20;99.90;;;;;;5018234;28;21197;-68
2021/05/19 04:58:35;;;;;;;25.10;21.03;;;9.20;99.90;;;;;;5019010;28;20229;-68
2021/05/19 05:01:00;;;;;;;24.10;20.83;;;9.30;99.90;;;;;;5001497;28;20197;-68
2021/05/19 05:03:26;;;;;;;26.67;21.90;;;9.40;99.90;;;;;;5012188;28;20229;-67
2021/05/19 05:05:53;;;;;;;25.80;21.13;;;9.40;99.90;;;;;;5008144;28;20489;-66
2021/05/19 05:08:21;;;;;;;24.43;19.47;;;9.50;99.90;;;;;;5017996;28;20267;-67
2021/05/19 05:10:47;;;;;;;21.00;18.70;;;9.50;99.90;;;;;;4997184;28;20647;-68
2021/05/19 05:13:13;;;;;;;24.20;20.03;;;9.60;99.90;;;;;;5013692;28;20666;-67
2021/05/19 05:15:38;;;;;;;21.07;18.87;;;9.80;99.90;;;;;;5013426;28;20229;-65
2021/05/19 05:18:04;;;;;;;21.60;19.30;;;9.80;99.90;;;;;;4995802;28;20243;-66
2021/05/19 05:20:30;;;;;;;21.27;18.97;;;9.90;99.90;;;;;;5009243;28;20721;-67
2021/05/19 05:22:56;;;;;;;20.23;18.13;;;9.90;99.90;;;;;;5012099;28;20197;-68
2021/05/19 05:25:22;;;;;;;18.77;16.77;;;10.00;99.90;;;;;;5010652;28;20623;-66
2021/05/19 05:27:49;;;;;;;18.73;16.80;;;10.10;99.90;;;;;;5007952;28;20215;-68
2021/05/19 05:30:16;;;;;;;18.43;16.53;;;10.20;99.90;;;;;;4993676;28;20612;-67
2021/05/19 05:32:42;;;;;;;20.27;17.70;;;10.20;99.90;;;;;;5005521;28;20658;-67
2021/05/19 05:35:11;;;;;;;17.00;15.17;;;10.20;99.90;;;;;;4963535;28;20620;-67
2021/05/19 05:37:37;;;;;;;18.50;16.10;;;10.30;99.90;;;;;;4989415;28;20201;-68
2021/05/19 05:40:05;;;;;;;18.90;16.90;;;10.30;99.90;;;;;;4991286;28;20673;-67
2021/05/19 05:42:31;;;;;;;17.60;15.73;;;10.30;99.90;;;;;;4990730;28;20622;-69
2021/05/19 05:44:56;;;;;;;17.40;15.60;;;10.40;99.90;;;;;;5003872;28;20635;-68
2021/05/19 05:47:22;;;;;;;18.30;15.23;;;10.40;99.90;;;;;;4970331;28;20739;-67
2021/05/19 05:49:50;;;;;;;16.57;14.87;;;10.50;99.90;;;;;;4974592;28;20295;-67
2021/05/19 05:52:18;;;;;;;15.97;14.47;;;10.50;99.90;;;;;;4994271;28;20189;-68
2021/05/19 05:54:44;;;;;;;18.80;15.20;;;10.60;99.90;;;;;;5003680;28;20642;-68
2021/05/19 05:57:10;;;;;;;16.90;15.17;;;10.60;99.90;;;;;;4988161;28;20624;-67
2021/05/19 05:59:36;;;;;;;15.93;14.33;;;10.60;99.90;;;;;;4997037;28;20240;-68
2021/05/19 06:02:02;;;;;;;16.13;14.53;;;10.70;99.90;;;;;;4995742;28;20620;-68
2021/05/19 06:04:27;;;;;;;15.97;14.37;;;10.80;99.90;;;;;;4972865;28;20776;-67
2021/05/19 06:06:53;;;;;;;15.00;13.50;;;10.90;99.90;;;;;;4989632;28;20237;-67
2021/05/19 06:09:19;;;;;;;14.60;13.20;;;10.90;99.90;;;;;;5007251;28;20431;-67
2021/05/19 06:11:45;;;;;;;15.33;13.83;;;11.00;99.90;;;;;;4995236;28;20197;-67
2021/05/19 06:14:10;;;;;;;12.30;11.10;;;11.00;99.90;;;;;;5000193;28;20651;-68
2021/05/19 06:16:36;;;;;;;13.33;12.03;;;11.10;99.90;;;;;;5001674;28;20322;-67
2021/05/19 06:19:03;;;;;;;13.53;12.17;;;11.10;99.90;;;;;;5002933;28;20754;-68
2021/05/19 06:21:28;;;;;;;12.87;11.57;;;11.10;99.90;;;;;;4997341;28;20223;-68
2021/05/19 06:23:54;;;;;;;13.90;12.50;;;11.20;99.90;;;;;;5002387;28;20734;-66
2021/05/19 06:26:19;;;;;;;13.87;12.57;;;11.30;99.90;;;;;;4996141;28;20193;-68
2021/05/19 06:28:45;;;;;;;13.43;12.13;;;11.30;99.90;;;;;;4997295;28;20216;-66
2021/05/19 06:31:13;;;;;;;12.77;11.50;;;11.30;99.90;;;;;;4997203;28;20254;-66
2021/05/19 06:33:39;;;;;;;12.53;11.33;;;11.40;99.90;;;;;;4994775;28;20244;-66
2021/05/19 06:36:07;;;;;;;13.47;12.17;;;11.40;99.90;;;;;;4976632;28;20620;-66
2021/05/19 06:38:33;;;;;;;13.87;12.57;;;11.50;99.90;;;;;;4982440;28;20216;-66
2021/05/19 06:40:59;;;;;;;11.43;10.43;;;11.60;99.90;;;;;;4998112;28;20702;-65
2021/05/19 06:43:24;;;;;;;11.70;10.70;;;11.70;99.90;;;;;;4997693;28;20625;-66
2021/05/19 06:45:50;;;;;;;10.73;9.83;;;11.70;99.90;;;;;;4999464;28;20628;-66
2021/05/19 06:48:15;;;;;;;11.27;10.27;;;11.70;99.90;;;;;;4999020;28;20783;-66
2021/05/19 06:50:41;;;;;;;10.20;9.30;;;11.80;99.90;;;;;;4999429;28;20192;-66
2021/05/19 06:53:06;;;;;;;8.17;7.50;;;11.80;99.90;;;;;;4976639;28;20704;-66
2021/05/19 06:55:32;;;;;;;8.60;7.80;;;11.80;99.90;;;;;;4995981;28;20193;-67
2021/05/19 06:57:57;;;;;;;8.43;7.73;;;11.90;99.90;;;;;;4995486;28;20213;-67
2021/05/19 07:00:23;;;;;;;9.13;8.40;;;12.00;99.90;;;;;;4977323;28;20204;-66
2021/05/19 07:02:51;;;;;;;8.93;8.20;;;12.00;99.90;;;;;;4998008;28;20200;-68
2021/05/19 07:05:17;;;;;;;8.10;7.40;;;12.20;99.90;;;;;;4977819;28;20196;-68
2021/05/19 07:07:46;;;;;;;8.03;7.43;;;12.30;99.90;;;;;;4993581;28;20659;-66
2021/05/19 07:10:12;;;;;;;8.10;7.40;;;12.30;99.90;;;;;;4984530;28;20259;-67
2021/05/19 07:12:40;;;;;;;8.50;7.80;;;12.30;99.90;;;;;;4998017;28;20761;-65
2021/05/19 07:15:12;;;;;;;9.63;8.70;;;12.50;99.90;;;;;;4980100;28;20652;-66
2021/05/19 07:17:38;;;;;;;8.30;7.60;;;12.50;99.90;;;;;;4993430;28;21003;-68
2021/05/19 07:20:10;;;;;;;8.67;7.97;;;12.50;99.90;;;;;;4990220;28;20652;-68
2021/05/19 07:22:36;;;;;;;9.07;8.30;;;12.60;99.90;;;;;;4996425;28;20617;-66
2021/05/19 07:25:03;;;;;;;9.53;8.63;;;12.50;99.90;;;;;;4976198;28;21162;-68
2021/05/19 07:27:29;;;;;;;7.63;7.00;;;12.50;99.90;;;;;;4974631;28;20758;-68
2021/05/19 07:29:55;;;;;;;6.97;6.27;;;12.50;99.90;;;;;;4993696;28;20624;-68
2021/05/19 07:32:20;;;;;;;5.70;5.20;;;12.60;99.90;;;;;;5001814;28;20232;-68
2021/05/19 07:34:46;;;;;;;6.40;5.90;;;12.70;99.90;;;;;;5005246;28;20228;-68
2021/05/19 07:37:11;;;;;;;7.73;6.93;;;12.70;99.90;;;;;;4982874;28;20235;-67
2021/05/19 07:39:37;;;;;;;8.00;7.20;;;12.90;99.90;;;;;;4997232;28;24447;-68
2021/05/19 07:42:03;;;;;;;7.83;7.07;;;13.00;99.90;;;;;;4980734;28;20197;-67
2021/05/19 07:44:28;;;;;;;7.60;6.90;;;12.90;99.90;;;;;;5000654;28;20264;-68
2021/05/19 07:46:54;;;;;;;7.50;6.80;;;13.00;99.90;;;;;;5002416;28;20804;-68
2021/05/19 07:49:22;;;;;;;6.73;6.03;;;13.00;99.90;;;;;;5002142;28;20316;-68
2021/05/19 07:51:47;;;;;;;7.77;7.07;;;12.90;99.90;;;;;;5006664;28;20189;-68
2021/05/19 07:54:22;;;;;;;7.10;6.50;;;12.90;99.90;;;;;;5001373;28;20647;-68
2021/05/19 07:56:57;;;;;;;6.23;5.63;;;13.00;99.90;;;;;;5013060;28;20195;-68
2021/05/19 07:59:29;;;;;;;7.10;6.50;;;13.10;99.90;;;;;;4981494;28;27164;-67
2021/05/19 08:02:02;;;;;;;6.10;5.50;;;13.20;99.90;;;;;;5014592;28;20635;-68
2021/05/19 08:04:29;;;;;;;6.40;5.80;;;13.30;99.90;;;;;;5005107;28;21725;-68
2021/05/19 08:06:55;;;;;;;6.47;5.87;;;13.40;99.90;;;;;;5011430;28;20665;-68
2021/05/19 08:09:21;;;;;;;6.77;6.17;;;13.50;99.90;;;;;;4993255;28;20665;-68
2021/05/19 08:11:48;;;;;;;7.57;6.87;;;13.60;99.90;;;;;;4988457;28;21124;-68
2021/05/19 08:14:14;;;;;;;6.50;5.90;;;13.60;99.90;;;;;;5002470;28;20890;-68
2021/05/19 08:16:40;;;;;;;6.27;5.67;;;13.60;99.90;;;;;;5008174;28;20622;-68
2021/05/19 08:19:06;;;;;;;6.93;6.03;;;13.80;99.90;;;;;;4981466;28;20655;-68
2021/05/19 08:21:31;;;;;;;6.00;5.50;;;13.90;99.90;;;;;;4991688;28;20632;-68
2021/05/19 08:23:57;;;;;;;6.60;6.00;;;13.80;99.90;;;;;;4991889;28;20221;-68
2021/05/19 08:26:23;;;;;;;6.80;6.20;;;13.80;99.90;;;;;;5001440;28;20193;-68
2021/05/19 08:28:49;;;;;;;6.80;6.20;;;13.80;99.90;;;;;;5006380;28;20209;-67
2021/05/19 08:31:18;;;;;;;7.33;6.60;;;13.80;99.90;;;;;;4991598;28;20188;-68
2021/05/19 08:33:44;;;;;;;7.13;6.03;;;13.90;99.90;;;;;;5012572;28;20758;-68
2021/05/19 08:36:10;;;;;;;7.23;6.57;;;13.90;99.90;;;;;;5013672;28;20622;-68
2021/05/19 08:38:38;;;;;;;6.27;5.77;;;14.00;99.90;;;;;;5002815;28;20643;-68
2021/05/19 08:41:07;;;;;;;6.10;5.70;;;13.90;99.90;;;;;;5021518;28;20615;-68
2021/05/19 08:43:33;;;;;;;7.70;7.10;;;14.10;99.90;;;;;;5015018;28;20780;-68
2021/05/19 08:45:59;;;;;;;7.47;6.77;;;14.10;99.90;;;;;;5007608;28;20705;-66
2021/05/19 08:48:25;;;;;;;7.67;6.90;;;13.90;99.90;;;;;;5006615;28;20761;-68
2021/05/19 08:50:51;;;;;;;6.60;6.00;;;14.00;99.90;;;;;;5010104;28;20189;-68
2021/05/19 08:53:17;;;;;;;7.77;7.07;;;14.00;99.90;;;;;;5015616;28;20758;-68
2021/05/19 08:55:43;;;;;;;6.30;5.80;;;14.00;99.90;;;;;;5013404;28;20627;-68
2021/05/19 08:58:08;;;;;;;6.20;5.60;;;14.00;99.90;;;;;;5023280;22;20243;-64
2021/05/19 09:00:34;;;;;;;6.33;5.83;;;14.00;99.90;;;;;;5023711;28;20266;-63
2021/05/19 09:03:11;;;;;;;6.00;5.50;;;14.20;99.90;;;;;;5021711;28;20228;-63
2021/05/19 09:05:49;;;;;;;6.00;5.50;;;14.30;99.90;;;;;;5014767;28;20215;-64
2021/05/19 09:08:16;;;;;;;6.40;5.80;;;14.30;99.90;;;;;;5007148;28;20659;-63
2021/05/19 09:10:55;;;;;;;6.80;6.10;;;14.40;99.90;;;;;;4991735;28;20825;-65
2021/05/19 09:13:30;;;;;;;6.23;5.73;;;14.50;99.90;;;;;;4994394;28;21254;-65
2021/05/19 09:15:56;;;;;;;5.60;5.20;;;14.60;99.90;;;;;;4992160;28;20627;-65
2021/05/19 09:18:21;;;;;;;6.20;5.70;;;14.80;99.90;;;;;;4983283;28;20750;-64
2021/05/19 09:20:52;;;;;;;5.33;4.83;;;14.70;99.90;;;;;;4989965;28;20749;-64
2021/05/19 09:23:22;;;;;;;7.10;6.40;;;14.80;99.90;;;;;;5000462;28;20224;-63
2021/05/19 09:26:09;;;;;;;5.73;5.33;;;14.80;99.90;;;;;;4994759;28;20734;-64
2021/05/19 09:28:34;;;;;;;6.30;5.70;;;14.90;99.90;;;;;;4989482;28;20666;-63
2021/05/19 09:31:00;;;;;;;6.07;5.57;;;14.90;99.90;;;;;;4994346;28;20624;-64
2021/05/19 09:33:28;;;;;;;9.10;6.90;;;15.10;99.90;;;;;;4989225;28;20315;-68
2021/05/19 09:36:19;;;;;;;6.07;5.47;;;15.00;99.90;;;;;;4984908;28;20585;-65
2021/05/19 09:38:50;;;;;;;5.90;5.40;;;14.90;99.90;;;;;;4986434;28;23276;-63
2021/05/19 09:41:28;;;;;;;6.30;5.80;;;15.00;99.90;;;;;;5007202;28;20635;-63
2021/05/19 09:43:57;;;;;;;7.40;5.10;;;15.10;99.90;;;;;;5002275;28;21160;-64
2021/05/19 09:49:17;;;;;;;5.67;5.03;;;15.20;99.90;;;;;;4988853;28;20650;-66
2021/05/19 09:51:49;;;;;;;4.50;4.20;;;15.30;99.90;;;;;;4988345;28;20650;-65
2021/05/19 09:54:27;;;;;;;6.30;5.20;;;15.30;99.90;;;;;;4986329;28;20792;-65
2021/05/19 09:57:01;;;;;;;5.40;4.90;;;15.20;99.90;;;;;;4990684;28;20686;-66
2021/05/19 09:59:29;;;;;;;4.73;4.33;;;15.20;99.90;;;;;;4986868;28;20685;-65
2021/05/19 10:01:57;;;;;;;5.10;4.33;;;15.20;99.90;;;;;;4992399;28;20623;-64
2021/05/19 10:04:30;;;;;;;4.17;3.87;;;15.10;99.90;;;;;;4987390;28;20716;-63
2021/05/19 10:06:58;;;;;;;4.10;3.80;;;15.20;99.90;;;;;;4986809;28;20624;-63
2021/05/19 10:09:27;;;;;;;3.77;3.47;;;15.30;99.90;;;;;;4992603;28;20651;-64
2021/05/19 10:11:54;;;;;;;3.83;3.53;;;15.30;99.90;;;;;;5007419;28;20652;-65
2021/05/19 10:14:24;;;;;;;4.00;3.70;;;15.40;99.90;;;;;;5018537;28;20662;-66
2021/05/19 10:17:06;;;;;;;4.40;4.00;;;15.50;99.90;;;;;;4995935;28;20670;-64
2021/05/19 10:19:45;;;;;;;3.87;3.57;;;15.60;99.90;;;;;;4995448;28;21916;-63
2021/05/19 10:22:14;;;;;;;4.00;3.70;;;15.70;99.90;;;;;;4998863;28;20666;-66
2021/05/19 10:24:48;;;;;;;5.07;4.27;;;15.80;99.90;;;;;;4991342;28;20640;-63
2021/05/19 10:27:15;;;;;;;4.77;4.37;;;15.90;99.90;;;;;;4993248;28;20619;-63
2021/05/19 10:29:50;;;;;;;4.07;3.77;;;15.90;99.90;;;;;;4999630;28;21150;-63
2021/05/19 10:32:22;;;;;;;4.17;3.77;;;15.90;99.90;;;;;;4992866;28;20631;-63
2021/05/19 10:34:54;;;;;;;3.93;3.57;;;15.80;99.90;;;;;;4990199;28;20648;-64
2021/05/19 10:37:36;;;;;;;4.60;4.00;;;15.80;99.90;;;;;;4992861;28;20627;-64
2021/05/19 10:40:10;;;;;;;3.83;3.43;;;15.90;99.90;;;;;;4996280;28;20611;-64
2021/05/19 10:42:38;;;;;;;4.57;3.50;;;16.00;99.90;;;;;;4997678;28;21792;-65
2021/05/19 10:45:07;;;;;;;3.83;3.50;;;16.10;99.90;;;;;;5001722;28;20648;-65
2021/05/19 10:47:33;;;;;;;3.83;3.53;;;16.10;99.90;;;;;;4995104;28;20630;-65
2021/05/19 10:58:36;;;;;;;4.47;3.90;;;16.70;99.90;;;;;;5001731;28;20669;-65
2021/05/19 11:01:09;;;;;;;3.60;3.30;;;16.90;99.90;;;;;;4990999;28;20674;-63
2021/05/19 11:03:35;;;;;;;3.30;3.10;;;17.00;99.90;;;;;;4999250;28;20650;-64
2021/05/19 11:06:03;;;;;;;3.77;3.40;;;17.10;99.90;;;;;;4981011;28;20740;-65
2021/05/19 11:08:30;;;;;;;3.17;2.93;;;17.20;99.90;;;;;;4971618;28;20652;-65
2021/05/19 11:11:21;;;;;;;2.80;2.60;;;17.40;99.90;;;;;;4984649;28;20623;-65
2021/05/19 11:14:22;;;;;;;2.90;1.83;;;17.50;99.90;;;;;;4987795;28;21774;-65
2021/05/19 11:17:14;;;;;;;2.73;2.20;;;17.70;99.90;;;;;;4983898;28;20666;-64
2021/05/19 11:19:41;;;;;;;3.20;2.60;;;17.80;99.90;;;;;;4987774;28;20652;-64
2021/05/19 11:22:12;;;;;;;2.70;2.37;;;17.90;99.90;;;;;;5003917;28;21221;-63
2021/05/19 11:25:07;;;;;;;2.37;2.17;;;18.00;99.90;;;;;;4999027;28;20639;-63
2021/05/19 11:27:37;;;;;;;3.10;2.60;;;18.00;99.90;;;;;;4989581;28;20738;-65
2021/05/19 11:30:06;;;;;;;3.40;3.20;;;18.00;99.90;;;;;;5000099;28;20752;-65
2021/05/19 11:32:33;;;;;;;3.27;2.97;;;17.90;99.90;;;;;;5000312;28;21217;-65
2021/05/19 11:35:17;;;;;;;2.90;2.70;;;17.70;99.90;;;;;;5001504;28;21332;-65
2021/05/19 11:37:56;;;;;;;3.90;2.30;;;17.70;99.90;;;;;;4996966;28;20648;-67
2021/05/19 11:40:23;;;;;;;2.73;2.53;;;17.60;99.90;;;;;;5001022;28;20619;-65
2021/05/19 11:42:55;;;;;;;2.67;2.47;;;17.50;99.90;;;;;;5006466;28;20635;-64
2021/05/19 11:45:26;;;;;;;2.00;1.90;;;17.40;99.90;;;;;;4999553;28;20626;-64
2021/05/19 11:47:52;;;;;;;2.70;1.90;;;17.40;99.90;;;;;;4999337;28;20681;-64
2021/05/19 11:50:30;;;;;;;2.53;2.23;;;17.40;99.90;;;;;;5017598;28;21761;-64
2021/05/19 11:53:05;;;;;;;3.30;2.50;;;17.40;99.90;;;;;;5002412;28;20654;-65
2021/05/19 11:55:48;;;;;;;2.10;2.00;;;17.40;99.90;;;;;;5007360;28;20602;-62
2021/05/19 11:58:25;;;;;;;2.30;2.13;;;17.50;99.90;;;;;;5005806;28;20668;-63
2021/05/19 12:00:58;;;;;;;2.30;2.20;;;17.60;99.90;;;;;;5014812;28;20626;-65
2021/05/19 12:03:30;;;;;;;3.07;2.40;;;17.50;99.90;;;;;;5000498;28;20637;-65
2021/05/19 12:06:01;;;;;;;2.20;2.00;;;17.40;99.90;;;;;;5019114;28;20619;-64
2021/05/19 12:08:29;;;;;;;2.13;1.93;;;17.50;99.90;;;;;;5005844;28;20669;-65
2021/05/19 12:11:04;;;;;;;2.90;2.00;;;17.60;99.90;;;;;;5005601;28;21142;-65
2021/05/19 12:13:35;;;;;;;2.10;2.00;;;17.70;99.90;;;;;;5001921;28;20653;-64
2021/05/19 12:16:02;;;;;;;3.07;1.90;;;17.70;99.90;;;;;;5012953;28;24006;-65
2021/05/19 12:18:28;;;;;;;1.70;1.60;;;17.80;99.90;;;;;;5009508;28;20724;-66
2021/05/19 12:20:54;;;;;;;1.90;1.80;;;18.00;99.90;;;;;;5028105;28;20624;-64
2021/05/19 12:23:19;;;;;;;2.03;1.83;;;18.30;99.90;;;;;;4999919;28;20252;-66
2021/05/19 12:25:45;;;;;;;1.97;1.87;;;18.40;99.90;;;;;;5005386;28;20204;-65
2021/05/19 12:28:22;;;;;;;2.40;2.03;;;18.60;99.90;;;;;;5000327;28;20595;-65
2021/05/19 12:30:54;;;;;;;3.53;2.43;;;18.70;99.90;;;;;;5009785;28;20751;-65
2021/05/19 12:33:23;;;;;;;2.03;1.93;;;18.80;99.90;;;;;;5005427;28;21235;-65
2021/05/19 12:35:49;;;;;;;2.00;1.87;;;18.90;99.90;;;;;;5000513;28;23879;-65
2021/05/19 12:38:23;;;;;;;1.70;1.60;;;19.10;99.90;;;;;;5006260;28;20860;-65
2021/05/19 12:40:50;;;;;;;1.87;1.77;;;19.10;99.90;;;;;;5003297;28;20613;-66
2021/05/19 12:43:26;;;;;;;1.67;1.57;;;19.30;99.90;;;;;;5003780;28;20636;-65
2021/05/19 12:45:53;;;;;;;1.93;1.47;;;19.40;99.90;;;;;;4987132;28;20631;-65
2021/05/19 12:48:21;;;;;;;1.50;1.50;;;19.40;99.90;;;;;;5001680;28;20681;-65
2021/05/19 12:50:52;;;;;;;2.00;1.70;;;19.40;99.90;;;;;;4993426;28;20708;-68
2021/05/19 12:53:36;;;;;;;1.50;1.40;;;19.60;99.90;;;;;;5000166;28;20642;-65
2021/05/19 12:56:11;;;;;;;2.00;1.57;;;19.80;99.90;;;;;;5001361;28;20619;-63
2021/05/19 12:59:00;;;;;;;1.30;1.20;;;19.90;99.90;;;;;;5006247;28;20679;-65
2021/05/19 13:01:31;;;;;;;1.30;1.20;;;20.10;99.90;;;;;;5001086;28;20656;-64